Time;durP1;ratioP1;P1;durP2;ratioP2;P2;SDS_P1;SDS_P2;PMS_P1;PMS_P2;Temp;Humidity;BMP_temperature;BMP_pressure;BME280_temperature;BME280_humidity;BME280_pressure;Samples;Min_cycle;Max_cycle;Signal;HPM_P1;HPM_P2
2023/12/08 00:04:18;;;;;;;22.55;19.33;;;;;;;;;;10264800;28;20119;-63
2023/12/08 00:09:16;;;;;;;20.83;17.58;;;;;;;;;;10283693;28;20044;-62
2023/12/08 00:14:14;;;;;;;20.67;17.98;;;;;;;;;;10281462;28;20090;-64
2023/12/08 00:19:14;;;;;;;20.77;16.52;;;;;;;;;;10280576;28;20044;-63
2023/12/08 00:24:12;;;;;;;21.42;17.40;;;;;;;;;;10279380;28;20147;-63
2023/12/08 00:29:11;;;;;;;17.25;15.10;;;;;;;;;;10278348;28;20040;-64
2023/12/08 00:34:10;;;;;;;20.25;15.95;;;;;;;;;;10280216;28;20402;-64
2023/12/08 00:39:10;;;;;;;22.80;18.65;;;;;;;;;;10281721;28;20505;-64
2023/12/08 00:44:09;;;;;;;26.75;22.63;;;;;;;;;;10281350;28;20146;-64
2023/12/08 00:49:07;;;;;;;24.20;20.23;;;;;;;;;;10280251;28;20048;-63
2023/12/08 00:54:05;;;;;;;23.58;19.10;;;;;;;;;;10280880;28;20101;-64
2023/12/08 00:59:05;;;;;;;21.65;18.70;;;;;;;;;;10281318;28;20129;-63
2023/12/08 01:04:03;;;;;;;17.00;14.75;;;;;;;;;;10280064;28;20613;-64
2023/12/08 01:09:02;;;;;;;19.85;15.85;;;;;;;;;;10282156;28;20131;-63
2023/12/08 01:14:01;;;;;;;19.02;16.45;;;;;;;;;;10280257;28;20428;-64
2023/12/08 01:19:00;;;;;;;16.00;13.65;;;;;;;;;;10280937;28;20036;-63
2023/12/08 01:23:59;;;;;;;17.35;14.52;;;;;;;;;;10279389;28;20044;-64
2023/12/08 01:28:57;;;;;;;16.10;14.40;;;;;;;;;;10278397;28;20059;-64
2023/12/08 01:33:55;;;;;;;17.42;13.95;;;;;;;;;;10281074;28;20050;-63
2023/12/08 01:38:55;;;;;;;17.17;14.10;;;;;;;;;;10279434;28;20148;-64
2023/12/08 01:43:54;;;;;;;16.77;13.88;;;;;;;;;;10280679;28;20179;-63
2023/12/08 01:48:52;;;;;;;16.20;13.20;;;;;;;;;;10280132;28;20622;-64
2023/12/08 01:53:51;;;;;;;19.00;14.63;;;;;;;;;;10279794;28;20125;-63
2023/12/08 01:58:50;;;;;;;20.00;15.98;;;;;;;;;;10283657;28;20063;-63
2023/12/08 02:03:50;;;;;;;21.55;17.13;;;;;;;;;;10286858;28;20127;-63
2023/12/08 02:08:49;;;;;;;20.75;16.27;;;;;;;;;;10287576;28;20048;-64
2023/12/08 02:13:48;;;;;;;25.60;21.55;;;;;;;;;;10285212;28;20573;-64
2023/12/08 02:18:48;;;;;;;24.88;19.80;;;;;;;;;;10287141;28;20188;-64
2023/12/08 02:23:48;;;;;;;20.88;15.90;;;;;;;;;;10284081;28;20571;-64
2023/12/08 02:28:47;;;;;;;15.70;13.50;;;;;;;;;;10284746;28;20507;-64
2023/12/08 02:33:47;;;;;;;18.48;15.85;;;;;;;;;;10287917;28;20123;-63
2023/12/08 02:38:47;;;;;;;18.20;14.50;;;;;;;;;;10284229;28;22017;-63
2023/12/08 02:43:47;;;;;;;19.88;16.00;;;;;;;;;;10284578;28;20793;-64
2023/12/08 02:48:45;;;;;;;16.48;14.18;;;;;;;;;;10284636;28;20163;-64
2023/12/08 02:53:52;;;;;;;13.80;12.32;;;;;;;;;;10286105;28;20055;-64
2023/12/08 02:58:52;;;;;;;24.15;20.35;;;;;;;;;;10287151;28;20044;-63
2023/12/08 03:03:50;;;;;;;19.25;16.77;;;;;;;;;;10286737;28;20134;-63
2023/12/08 03:08:49;;;;;;;17.48;14.52;;;;;;;;;;10286760;28;21508;-63
2023/12/08 03:13:47;;;;;;;16.42;13.75;;;;;;;;;;10283244;28;20054;-63
2023/12/08 03:18:47;;;;;;;19.40;14.70;;;;;;;;;;10285120;28;20147;-63
2023/12/08 03:23:45;;;;;;;14.60;12.25;;;;;;;;;;10283930;28;20480;-63
2023/12/08 03:28:43;;;;;;;16.63;13.40;;;;;;;;;;10282400;28;20048;-63
2023/12/08 03:33:41;;;;;;;16.55;13.43;;;;;;;;;;10284083;28;20163;-63
2023/12/08 03:38:41;;;;;;;18.02;13.82;;;;;;;;;;10279798;28;20591;-63
2023/12/08 03:43:40;;;;;;;19.00;14.05;;;;;;;;;;10282131;28;20167;-63
2023/12/08 03:48:38;;;;;;;18.98;15.45;;;;;;;;;;10282977;28;20796;-63
2023/12/08 03:53:36;;;;;;;18.60;15.57;;;;;;;;;;10280706;28;20135;-64
2023/12/08 03:58:36;;;;;;;18.77;15.90;;;;;;;;;;10281386;28;20044;-64
2023/12/08 04:03:39;;;;;;;19.17;15.48;;;;;;;;;;10279257;28;20488;-64
2023/12/08 04:08:38;;;;;;;18.30;15.73;;;;;;;;;;10259350;28;20135;-64
2023/12/08 04:13:38;;;;;;;18.73;15.07;;;;;;;;;;10278728;28;20167;-63
2023/12/08 04:18:38;;;;;;;19.95;15.77;;;;;;;;;;10281554;28;20527;-64
2023/12/08 04:23:36;;;;;;;21.50;17.25;;;;;;;;;;10280612;28;20127;-64
2023/12/08 04:28:35;;;;;;;20.52;16.60;;;;;;;;;;10288602;28;20487;-64
2023/12/08 04:33:34;;;;;;;20.15;16.50;;;;;;;;;;10314950;28;20083;-64
2023/12/08 04:38:33;;;;;;;21.00;15.63;;;;;;;;;;10312079;28;20665;-63
2023/12/08 04:43:31;;;;;;;20.23;17.20;;;;;;;;;;10312043;28;20507;-63
2023/12/08 04:48:29;;;;;;;21.02;17.42;;;;;;;;;;10310774;28;20068;-63
2023/12/08 04:53:29;;;;;;;22.58;17.50;;;;;;;;;;10309769;28;20072;-63
2023/12/08 04:58:28;;;;;;;20.63;15.15;;;;;;;;;;10338537;28;20555;-63
2023/12/08 05:03:26;;;;;;;23.20;17.95;;;;;;;;;;10331459;28;20076;-63
2023/12/08 05:08:25;;;;;;;24.75;16.10;;;;;;;;;;10330181;28;20045;-63
2023/12/08 05:13:24;;;;;;;20.15;16.77;;;;;;;;;;10327074;28;20072;-63
2023/12/08 05:18:23;;;;;;;20.02;15.45;;;;;;;;;;10345496;28;20060;-64
2023/12/08 05:23:21;;;;;;;24.60;20.40;;;;;;;;;;10315189;28;20087;-64
2023/12/08 05:28:19;;;;;;;21.27;17.00;;;;;;;;;;10316321;28;20064;-64
2023/12/08 05:33:20;;;;;;;26.05;17.80;;;;;;;;;;10319926;28;20123;-64
2023/12/08 05:38:19;;;;;;;22.55;18.52;;;;;;;;;;10306202;28;20079;-64
2023/12/08 05:43:17;;;;;;;19.25;17.08;;;;;;;;;;10309923;28;20139;-64
2023/12/08 05:48:15;;;;;;;20.27;16.67;;;;;;;;;;10306043;28;20130;-63
2023/12/08 05:53:15;;;;;;;20.13;16.27;;;;;;;;;;10337304;28;20728;-64
2023/12/08 05:58:13;;;;;;;20.15;15.48;;;;;;;;;;10348289;28;20165;-63
2023/12/08 06:03:11;;;;;;;20.17;15.30;;;;;;;;;;10336150;28;20063;-63
2023/12/08 06:08:10;;;;;;;15.25;12.95;;;;;;;;;;10314974;28;20140;-63
2023/12/08 06:13:09;;;;;;;21.55;16.80;;;;;;;;;;10313844;28;20210;-64
2023/12/08 06:18:08;;;;;;;19.38;14.93;;;;;;;;;;10316209;28;20067;-64
2023/12/08 06:23:06;;;;;;;16.30;13.48;;;;;;;;;;10285186;28;20122;-64
2023/12/08 06:28:05;;;;;;;16.65;14.10;;;;;;;;;;10280423;28;20051;-62
2023/12/08 06:33:05;;;;;;;16.63;13.60;;;;;;;;;;10292308;28;20139;-63
2023/12/08 06:38:04;;;;;;;16.05;12.52;;;;;;;;;;10285717;28;20147;-63
2023/12/08 06:43:03;;;;;;;15.90;13.52;;;;;;;;;;10293049;28;20135;-63
2023/12/08 06:48:01;;;;;;;15.95;12.23;;;;;;;;;;10295481;28;20156;-64
2023/12/08 06:53:01;;;;;;;19.33;13.93;;;;;;;;;;10323901;28;20536;-64
2023/12/08 06:58:00;;;;;;;14.18;11.75;;;;;;;;;;10283396;28;20043;-64
2023/12/08 07:02:58;;;;;;;15.13;11.50;;;;;;;;;;10299179;28;20481;-66
2023/12/08 07:07:57;;;;;;;13.77;11.52;;;;;;;;;;10315776;28;20071;-65
2023/12/08 07:12:57;;;;;;;13.55;11.55;;;;;;;;;;10306761;28;20147;-64
2023/12/08 07:17:55;;;;;;;33.08;24.05;;;;;;;;;;10332737;28;20063;-64
2023/12/08 07:22:54;;;;;;;20.88;16.23;;;;;;;;;;10315368;28;20068;-64
2023/12/08 07:27:52;;;;;;;18.05;15.60;;;;;;;;;;10317009;28;20056;-64
2023/12/08 07:32:52;;;;;;;13.20;11.45;;;;;;;;;;10308782;28;20131;-63
2023/12/08 07:37:51;;;;;;;16.48;12.95;;;;;;;;;;10281362;28;20174;-63
2023/12/08 07:42:49;;;;;;;14.38;10.55;;;;;;;;;;10294767;28;20144;-64
2023/12/08 07:47:47;;;;;;;21.92;15.90;;;;;;;;;;10320866;28;20051;-64
2023/12/08 07:52:51;;;;;;;25.38;19.60;;;;;;;;;;10309616;28;20056;-63
2023/12/08 07:57:50;;;;;;;26.17;19.98;;;;;;;;;;10296567;28;20127;-64
2023/12/08 08:02:48;;;;;;;18.10;14.77;;;;;;;;;;10293071;28;20592;-64
2023/12/08 08:07:46;;;;;;;21.13;14.10;;;;;;;;;;10289079;28;20499;-64
2023/12/08 08:12:46;;;;;;;20.73;16.50;;;;;;;;;;10298123;28;20151;-64
2023/12/08 08:17:44;;;;;;;33.13;25.15;;;;;;;;;;10290485;28;20190;-64
2023/12/08 08:22:43;;;;;;;17.05;13.95;;;;;;;;;;10284864;28;20120;-66
2023/12/08 08:27:41;;;;;;;15.48;12.77;;;;;;;;;;10275961;28;20048;-63
2023/12/08 08:32:41;;;;;;;22.42;17.77;;;;;;;;;;10306529;28;20087;-64
2023/12/08 08:37:39;;;;;;;15.57;13.18;;;;;;;;;;10296044;28;20143;-64
2023/12/08 08:42:37;;;;;;;16.05;11.80;;;;;;;;;;10299769;28;20591;-64
2023/12/08 08:47:36;;;;;;;13.85;11.77;;;;;;;;;;10308184;28;20060;-65
2023/12/08 08:52:35;;;;;;;17.13;14.65;;;;;;;;;;10263506;28;20143;-64
2023/12/08 08:57:34;;;;;;;20.38;11.98;;;;;;;;;;10279947;28;20930;-64
2023/12/08 09:02:32;;;;;;;17.83;13.27;;;;;;;;;;10267910;28;20131;-65
2023/12/08 09:07:30;;;;;;;20.73;15.40;;;;;;;;;;10320228;28;20068;-65
2023/12/08 09:12:31;;;;;;;21.88;15.82;;;;;;;;;;10327796;28;20082;-64
2023/12/08 09:17:29;;;;;;;17.92;15.13;;;;;;;;;;10306773;28;20123;-64
2023/12/08 09:22:27;;;;;;;22.00;16.75;;;;;;;;;;10333786;28;20083;-64
2023/12/08 09:27:26;;;;;;;30.95;20.35;;;;;;;;;;10337162;28;20075;-65
2023/12/08 09:32:26;;;;;;;24.90;19.25;;;;;;;;;;10340011;28;20063;-64
2023/12/08 09:37:25;;;;;;;17.30;14.48;;;;;;;;;;10318644;28;20139;-64
2023/12/08 09:42:36;;;;;;;16.42;12.98;;;;;;;;;;10328790;28;20076;-63
2023/12/08 09:47:36;;;;;;;18.25;13.50;;;;;;;;;;10322280;28;20429;-64
2023/12/08 09:52:35;;;;;;;15.95;14.02;;;;;;;;;;10295747;28;20132;-64
2023/12/08 09:57:34;;;;;;;16.38;14.18;;;;;;;;;;10297214;28;20135;-63
2023/12/08 10:02:33;;;;;;;20.10;15.35;;;;;;;;;;10324316;28;20071;-63
2023/12/08 10:07:33;;;;;;;17.50;13.18;;;;;;;;;;10335389;28;20060;-63
2023/12/08 10:12:31;;;;;;;16.33;13.73;;;;;;;;;;10317176;28;20127;-62
2023/12/08 10:17:29;;;;;;;15.90;13.43;;;;;;;;;;10323950;28;20139;-63
2023/12/08 10:22:28;;;;;;;18.25;14.73;;;;;;;;;;10300894;28;20127;-62
2023/12/08 10:27:28;;;;;;;15.50;13.02;;;;;;;;;;10265936;28;20166;-62
2023/12/08 10:32:26;;;;;;;20.20;12.93;;;;;;;;;;10306754;28;20120;-62
2023/12/08 10:37:24;;;;;;;14.38;12.57;;;;;;;;;;10335507;28;20075;-62
2023/12/08 10:42:24;;;;;;;14.23;12.18;;;;;;;;;;10323470;28;20126;-62
2023/12/08 10:47:24;;;;;;;17.88;15.90;;;;;;;;;;10324970;28;20482;-62
2023/12/08 10:52:23;;;;;;;17.45;13.50;;;;;;;;;;10300881;28;20047;-62
2023/12/08 10:57:22;;;;;;;22.60;19.42;;;;;;;;;;10308709;28;20167;-63
2023/12/08 11:02:23;;;;;;;32.00;23.70;;;;;;;;;;10311338;28;20143;-63
2023/12/08 11:07:27;;;;;;;23.45;19.15;;;;;;;;;;10295912;28;20179;-62
2023/12/08 11:12:28;;;;;;;19.15;17.00;;;;;;;;;;10293649;28;20572;-62
2023/12/08 11:17:31;;;;;;;16.45;14.70;;;;;;;;;;10304939;28;20529;-63
2023/12/08 11:22:31;;;;;;;20.13;18.02;;;;;;;;;;10308438;28;20127;-62
2023/12/08 11:27:33;;;;;;;24.60;21.90;;;;;;;;;;10326073;28;20086;-62
2023/12/08 11:32:36;;;;;;;19.45;15.45;;;;;;;;;;10311410;28;20072;-61
2023/12/08 11:37:36;;;;;;;17.73;15.35;;;;;;;;;;10325530;28;20122;-62
2023/12/08 11:42:35;;;;;;;20.42;16.60;;;;;;;;;;10320210;28;20876;-63
2023/12/08 11:47:34;;;;;;;21.13;14.70;;;;;;;;;;10306694;28;20075;-63
2023/12/08 11:52:33;;;;;;;15.77;13.68;;;;;;;;;;10321734;28;20071;-62
2023/12/08 11:57:34;;;;;;;17.50;14.52;;;;;;;;;;10324396;28;20530;-63
2023/12/08 12:02:32;;;;;;;16.02;13.20;;;;;;;;;;10303996;28;21704;-62
2023/12/08 12:07:31;;;;;;;14.93;12.55;;;;;;;;;;10285255;28;20075;-61
2023/12/08 12:12:30;;;;;;;14.85;12.75;;;;;;;;;;10288124;28;20139;-62
2023/12/08 12:17:32;;;;;;;17.55;14.90;;;;;;;;;;10318240;28;20075;-62
2023/12/08 12:22:30;;;;;;;17.33;14.82;;;;;;;;;;10312560;28;20136;-61
2023/12/08 12:27:29;;;;;;;16.92;13.77;;;;;;;;;;10333124;28;20055;-63
2023/12/08 12:32:28;;;;;;;17.77;13.77;;;;;;;;;;10326042;28;20082;-63
2023/12/08 12:37:27;;;;;;;18.67;15.35;;;;;;;;;;10310735;28;20099;-62
2023/12/08 12:42:26;;;;;;;22.08;18.08;;;;;;;;;;10284732;28;20156;-63
2023/12/08 12:47:26;;;;;;;16.48;13.60;;;;;;;;;;10305077;28;20510;-63
2023/12/08 12:52:25;;;;;;;17.25;14.27;;;;;;;;;;10304532;28;20121;-63
2023/12/08 12:57:38;;;;;;;16.83;13.80;;;;;;;;;;10325053;28;20078;-63
2023/12/08 13:02:38;;;;;;;18.30;14.02;;;;;;;;;;10314697;28;20078;-63
2023/12/08 13:07:37;;;;;;;20.35;16.00;;;;;;;;;;10289247;28;20286;-63
2023/12/08 13:12:35;;;;;;;19.55;15.07;;;;;;;;;;10284469;28;20164;-63
2023/12/08 13:17:33;;;;;;;42.67;28.77;;;;;;;;;;10312782;28;20063;-63
2023/12/08 13:22:33;;;;;;;157.35;86.68;;;;;;;;;;10280858;28;20087;-62
2023/12/08 13:27:31;;;;;;;34.25;23.30;;;;;;;;;;10275050;28;20048;-62
2023/12/08 13:32:30;;;;;;;26.73;18.85;;;;;;;;;;10292507;28;20123;-63
2023/12/08 13:37:28;;;;;;;23.10;19.08;;;;;;;;;;10292765;28;20939;-64
2023/12/08 13:42:28;;;;;;;20.30;16.63;;;;;;;;;;10278638;28;20136;-63
2023/12/08 13:47:26;;;;;;;21.65;17.98;;;;;;;;;;10315972;28;20056;-63
2023/12/08 13:52:25;;;;;;;36.63;27.65;;;;;;;;;;10307544;28;20056;-64
2023/12/08 13:57:23;;;;;;;40.38;30.95;;;;;;;;;;10281908;28;20062;-63
2023/12/08 14:02:23;;;;;;;48.47;32.55;;;;;;;;;;10310609;28;20119;-63
2023/12/08 14:07:21;;;;;;;29.73;24.30;;;;;;;;;;10320464;28;20072;-64
2023/12/08 14:12:20;;;;;;;18.83;16.80;;;;;;;;;;10290655;28;20063;-63
2023/12/08 14:17:18;;;;;;;47.20;35.08;;;;;;;;;;10301655;28;20600;-64
2023/12/08 14:22:18;;;;;;;27.02;22.52;;;;;;;;;;10313655;28;20098;-64
2023/12/08 14:27:16;;;;;;;36.92;25.50;;;;;;;;;;10321362;28;20079;-63
2023/12/08 14:32:14;;;;;;;53.45;37.33;;;;;;;;;;10321794;28;20064;-64
2023/12/08 14:37:12;;;;;;;34.72;26.98;;;;;;;;;;10320079;28;20082;-63
2023/12/08 14:42:13;;;;;;;34.55;25.52;;;;;;;;;;10307041;28;20123;-63
2023/12/08 14:47:11;;;;;;;28.70;21.80;;;;;;;;;;10338723;28;20060;-65
2023/12/08 14:52:10;;;;;;;29.45;22.73;;;;;;;;;;10327341;28;20502;-65
2023/12/08 14:57:08;;;;;;;27.92;22.08;;;;;;;;;;10327791;28;20087;-64
2023/12/08 15:02:08;;;;;;;27.20;22.77;;;;;;;;;;10334364;28;20078;-63
2023/12/08 15:07:07;;;;;;;24.40;21.00;;;;;;;;;;10325353;28;20083;-63
2023/12/08 15:12:05;;;;;;;25.77;20.38;;;;;;;;;;10342713;28;20094;-63
2023/12/08 15:17:03;;;;;;;26.13;20.40;;;;;;;;;;10345980;28;20074;-63
2023/12/08 15:22:03;;;;;;;62.22;42.50;;;;;;;;;;10336092;28;20067;-63
2023/12/08 15:27:01;;;;;;;36.90;31.33;;;;;;;;;;10322018;28;20064;-63
2023/12/08 15:32:00;;;;;;;29.58;23.90;;;;;;;;;;10329036;28;20067;-63
2023/12/08 15:36:58;;;;;;;30.52;24.90;;;;;;;;;;10331362;28;20079;-63
2023/12/08 15:41:57;;;;;;;37.33;25.13;;;;;;;;;;10313284;28;20064;-63
2023/12/08 15:46:56;;;;;;;28.38;21.77;;;;;;;;;;10303666;28;20573;-64
2023/12/08 15:51:55;;;;;;;27.27;22.10;;;;;;;;;;10277417;28;20132;-62
2023/12/08 15:56:53;;;;;;;53.83;39.88;;;;;;;;;;10276336;28;20411;-63
2023/12/08 16:01:56;;;;;;;33.33;27.20;;;;;;;;;;10278069;28;20127;-64
2023/12/08 16:06:54;;;;;;;40.78;33.25;;;;;;;;;;10291321;28;20135;-65
2023/12/08 16:11:52;;;;;;;36.08;31.30;;;;;;;;;;10279080;28;20551;-64
2023/12/08 16:16:51;;;;;;;47.58;33.83;;;;;;;;;;10309015;28;20135;-64
2023/12/08 16:21:50;;;;;;;35.38;27.17;;;;;;;;;;10335966;28;20068;-65
2023/12/08 16:26:48;;;;;;;31.83;24.92;;;;;;;;;;10322444;28;20497;-64
2023/12/08 16:31:47;;;;;;;41.75;31.63;;;;;;;;;;10330276;28;20520;-64
2023/12/08 16:36:45;;;;;;;37.90;26.67;;;;;;;;;;10319831;28;20508;-64
2023/12/08 16:41:47;;;;;;;28.35;24.25;;;;;;;;;;10323127;28;20079;-64
2023/12/08 16:46:46;;;;;;;38.08;28.45;;;;;;;;;;10329603;28;20130;-64
2023/12/08 16:51:44;;;;;;;35.47;25.08;;;;;;;;;;10321931;28;20575;-63
2023/12/08 16:56:42;;;;;;;35.30;26.95;;;;;;;;;;10330798;28;20063;-64
2023/12/08 17:01:42;;;;;;;32.35;25.40;;;;;;;;;;10307695;28;20036;-65
2023/12/08 17:06:40;;;;;;;29.58;23.88;;;;;;;;;;10322961;28;20071;-64
2023/12/08 17:11:38;;;;;;;27.77;23.73;;;;;;;;;;10334492;28;20064;-65
2023/12/08 17:16:37;;;;;;;31.45;24.98;;;;;;;;;;10323674;28;20476;-64
2023/12/08 17:21:37;;;;;;;24.60;19.98;;;;;;;;;;10336590;28;20540;-64
2023/12/08 17:26:36;;;;;;;28.55;24.00;;;;;;;;;;10333438;28;20143;-64
2023/12/08 17:31:39;;;;;;;36.22;26.40;;;;;;;;;;10332807;28;20076;-64
2023/12/08 17:36:38;;;;;;;33.67;23.00;;;;;;;;;;10335867;28;20087;-64
2023/12/08 17:41:36;;;;;;;50.13;36.97;;;;;;;;;;10329595;28;20068;-63
2023/12/08 17:46:35;;;;;;;40.88;27.75;;;;;;;;;;10344442;28;20538;-64
2023/12/08 17:51:33;;;;;;;60.67;42.40;;;;;;;;;;10336281;28;20064;-65
2023/12/08 17:56:32;;;;;;;37.40;29.00;;;;;;;;;;10337574;28;20540;-65
2023/12/08 18:01:31;;;;;;;38.22;28.33;;;;;;;;;;10330640;28;20083;-64
2023/12/08 18:06:29;;;;;;;44.85;33.22;;;;;;;;;;10325322;28;20036;-65
2023/12/08 18:11:27;;;;;;;40.20;30.33;;;;;;;;;;10338078;28;20071;-65
2023/12/08 18:16:27;;;;;;;44.78;33.33;;;;;;;;;;10331099;28;20074;-65
2023/12/08 18:21:26;;;;;;;47.47;33.28;;;;;;;;;;10334283;28;20573;-64
2023/12/08 18:26:24;;;;;;;44.80;31.25;;;;;;;;;;10323412;28;20075;-64
2023/12/08 18:31:23;;;;;;;40.60;29.10;;;;;;;;;;10329007;28;20079;-64
2023/12/08 18:36:23;;;;;;;38.85;27.33;;;;;;;;;;10340816;28;20044;-64
2023/12/08 18:41:21;;;;;;;36.50;27.52;;;;;;;;;;10335838;28;20079;-63
2023/12/08 18:46:19;;;;;;;42.58;29.83;;;;;;;;;;10324486;28;20428;-64
2023/12/08 18:51:17;;;;;;;39.60;28.73;;;;;;;;;;10345143;28;20468;-64
2023/12/08 18:56:17;;;;;;;37.33;27.17;;;;;;;;;;10336957;28;20092;-64
2023/12/08 19:01:15;;;;;;;55.45;39.88;;;;;;;;;;10328333;28;20569;-64
2023/12/08 19:06:13;;;;;;;59.72;37.88;;;;;;;;;;10330003;28;20485;-64
2023/12/08 19:11:12;;;;;;;46.05;31.98;;;;;;;;;;10337199;28;20068;-63
2023/12/08 19:16:11;;;;;;;43.83;29.17;;;;;;;;;;10342466;28;20255;-63
2023/12/08 19:21:11;;;;;;;44.90;31.35;;;;;;;;;;10330785;28;20545;-64
2023/12/08 19:26:09;;;;;;;41.45;26.95;;;;;;;;;;10319144;28;20079;-64
2023/12/08 19:31:08;;;;;;;37.28;26.42;;;;;;;;;;10325869;28;20068;-64
2023/12/08 19:36:08;;;;;;;39.25;27.65;;;;;;;;;;10331333;28;20072;-64
2023/12/08 19:41:06;;;;;;;41.05;28.17;;;;;;;;;;10320997;28;20103;-64
2023/12/08 19:46:04;;;;;;;48.40;34.83;;;;;;;;;;10342392;28;20066;-65
2023/12/08 19:51:03;;;;;;;39.42;30.33;;;;;;;;;;10328949;28;20063;-64
2023/12/08 19:56:02;;;;;;;42.83;31.13;;;;;;;;;;10336691;28;20551;-64
2023/12/08 20:01:01;;;;;;;35.58;27.20;;;;;;;;;;10325196;28;20080;-65
2023/12/08 20:05:59;;;;;;;68.95;45.83;;;;;;;;;;10326175;28;20064;-65
2023/12/08 20:10:58;;;;;;;36.55;25.90;;;;;;;;;;10342467;28;20065;-65
2023/12/08 20:15:58;;;;;;;38.63;29.00;;;;;;;;;;10324871;28;20483;-64
2023/12/08 20:20:56;;;;;;;47.10;36.28;;;;;;;;;;10333697;28;20072;-64
2023/12/08 20:25:54;;;;;;;56.95;41.08;;;;;;;;;;10319954;28;20067;-64
2023/12/08 20:30:52;;;;;;;66.25;46.67;;;;;;;;;;10324806;28;20518;-63
2023/12/08 20:35:52;;;;;;;55.05;37.30;;;;;;;;;;10345598;28;20536;-63
2023/12/08 20:40:50;;;;;;;62.92;40.22;;;;;;;;;;10329706;28;20474;-64
2023/12/08 20:45:49;;;;;;;56.65;39.22;;;;;;;;;;10336368;28;20078;-65
2023/12/08 20:50:47;;;;;;;65.15;43.95;;;;;;;;;;10328336;28;20076;-65
2023/12/08 20:55:47;;;;;;;138.65;79.90;;;;;;;;;;10334354;28;20110;-64
2023/12/08 21:00:45;;;;;;;55.38;36.72;;;;;;;;;;10325305;28;20143;-63
2023/12/08 21:05:43;;;;;;;47.20;31.33;;;;;;;;;;10327767;28;20068;-64
2023/12/08 21:10:42;;;;;;;53.70;32.08;;;;;;;;;;10335495;28;20067;-64
2023/12/08 21:15:42;;;;;;;82.30;51.28;;;;;;;;;;10322384;28;20075;-64
2023/12/08 21:20:40;;;;;;;78.97;44.25;;;;;;;;;;10331139;28;20473;-65
2023/12/08 21:25:38;;;;;;;75.25;45.72;;;;;;;;;;10320478;28;20557;-63
2023/12/08 21:30:37;;;;;;;76.80;43.13;;;;;;;;;;10327273;28;20064;-64
2023/12/08 21:35:36;;;;;;;84.93;48.60;;;;;;;;;;10328406;28;20079;-64
2023/12/08 21:40:35;;;;;;;77.82;44.28;;;;;;;;;;10330036;28;20136;-64
2023/12/08 21:45:33;;;;;;;98.30;56.47;;;;;;;;;;10332897;28;20079;-64
2023/12/08 21:50:31;;;;;;;158.40;95.53;;;;;;;;;;10327418;28;20071;-64
2023/12/08 21:55:32;;;;;;;75.15;43.55;;;;;;;;;;10331577;28;20064;-64
2023/12/08 22:00:30;;;;;;;75.10;44.22;;;;;;;;;;10323718;28;20075;-65
2023/12/08 22:05:29;;;;;;;67.65;41.42;;;;;;;;;;10326239;28;20079;-63
2023/12/08 22:10:27;;;;;;;73.35;39.08;;;;;;;;;;10332892;28;20070;-64
2023/12/08 22:15:27;;;;;;;67.75;40.83;;;;;;;;;;10338017;28;20067;-65
2023/12/08 22:20:26;;;;;;;60.67;36.53;;;;;;;;;;10341815;28;20080;-64
2023/12/08 22:25:24;;;;;;;54.35;35.13;;;;;;;;;;10323139;28;20068;-65
2023/12/08 22:30:22;;;;;;;52.05;32.95;;;;;;;;;;10336293;28;20067;-64
2023/12/08 22:35:22;;;;;;;60.17;35.35;;;;;;;;;;10317212;28;20474;-63
2023/12/08 22:40:20;;;;;;;61.75;39.45;;;;;;;;;;10313331;28;20072;-63
2023/12/08 22:45:18;;;;;;;57.33;35.10;;;;;;;;;;10278510;28;20036;-64
2023/12/08 22:50:17;;;;;;;55.55;35.38;;;;;;;;;;10280175;28;20046;-64
2023/12/08 22:55:16;;;;;;;56.25;34.05;;;;;;;;;;10282231;28;20123;-65
2023/12/08 23:00:21;;;;;;;61.53;35.85;;;;;;;;;;10260522;28;20048;-64
2023/12/08 23:05:20;;;;;;;63.55;41.15;;;;;;;;;;10262275;28;20150;-63
2023/12/08 23:10:20;;;;;;;55.08;33.50;;;;;;;;;;10277177;28;20501;-63
2023/12/08 23:15:18;;;;;;;51.38;33.70;;;;;;;;;;10282242;28;20049;-64
2023/12/08 23:20:16;;;;;;;53.50;35.42;;;;;;;;;;10344542;28;20467;-63
2023/12/08 23:25:15;;;;;;;47.83;31.42;;;;;;;;;;10340683;28;20064;-63
2023/12/08 23:30:16;;;;;;;46.65;32.38;;;;;;;;;;10325453;28;20465;-64
2023/12/08 23:35:14;;;;;;;42.10;28.10;;;;;;;;;;10331932;28;20072;-64
2023/12/08 23:40:12;;;;;;;43.70;28.73;;;;;;;;;;10322930;28;20076;-64
2023/12/08 23:45:12;;;;;;;42.72;27.60;;;;;;;;;;10336682;28;20477;-65
2023/12/08 23:50:12;;;;;;;34.33;23.80;;;;;;;;;;10339918;28;20063;-64
2023/12/08 23:55:11;;;;;;;34.75;26.40;;;;;;;;;;10324392;28;20078;-64
